Time;durP1;ratioP1;P1;durP2;ratioP2;P2;SDS_P1;SDS_P2;PMS_P1;PMS_P2;Temp;Humidity;BMP_temperature;BMP_pressure;BME280_temperature;BME280_humidity;BME280_pressure;Samples;Min_cycle;Max_cycle;Signal;HPM_P1;HPM_P2
2022/10/21 00:02:13;;;;;;;;;;;;;;;8.73;58.81;96076.75;5114420;28;980;-68
2022/10/21 00:04:39;;;;;;;;;;;;;;;8.78;58.61;96075.41;5113643;28;2056;-68
2022/10/21 00:07:05;;;;;;;;;;;;;;;8.50;59.92;96071.50;5114659;28;985;-68
2022/10/21 00:09:31;;;;;;;;;;;;;;;8.54;59.54;96072.09;5114463;28;1016;-68
2022/10/21 00:11:57;;;;;;;;;;;;;;;8.71;58.78;96079.53;5114495;28;1043;-68
2022/10/21 00:14:23;;;;;;;;;;;;;;;9.08;57.04;96084.47;5114357;28;972;-68
2022/10/21 00:16:49;;;;;;;;;;;;;;;8.78;57.78;96075.41;5114281;28;997;-68
2022/10/21 00:19:16;;;;;;;;;;;;;;;8.90;57.25;96073.53;5114187;28;1065;-68
2022/10/21 00:21:42;;;;;;;;;;;;;;;8.51;58.45;96065.19;5114182;28;1116;-68
2022/10/21 00:24:10;;;;;;;;;;;;;;;8.68;57.86;96070.94;5114006;28;1901;-68
2022/10/21 00:26:36;;;;;;;;;;;;;;;8.91;57.00;96067.19;5114177;28;1111;-68
2022/10/21 00:29:02;;;;;;;;;;;;;;;8.75;57.27;96064.97;5114194;28;1047;-68
2022/10/21 00:31:29;;;;;;;;;;;;;;;8.46;58.49;96066.53;5113979;28;1100;-68
2022/10/21 00:33:55;;;;;;;;;;;;;;;8.38;58.84;96065.31;5113994;28;1048;-68
2022/10/21 00:36:21;;;;;;;;;;;;;;;8.42;58.79;96070.41;5114075;28;1039;-68
2022/10/21 00:38:47;;;;;;;;;;;;;;;8.36;59.25;96072.56;5114154;28;1023;-68
2022/10/21 00:41:15;;;;;;;;;;;;;;;8.49;58.54;96068.94;5113980;28;1032;-68
2022/10/21 00:43:56;;;;;;;;;;;;;;;8.52;58.21;96072.22;5113930;28;1984;-68
2022/10/21 00:46:26;;;;;;;;;;;;;;;8.55;57.44;96073.78;5114014;28;1047;-68
2022/10/21 00:48:56;;;;;;;;;;;;;;;8.61;57.24;96073.25;5114105;27;981;-67
2022/10/21 00:51:22;;;;;;;;;;;;;;;8.16;59.38;96073.38;5099759;28;1310;-68
2022/10/21 00:53:49;;;;;;;;;;;;;;;8.40;58.14;96068.72;5093588;28;957;-68
2022/10/21 00:56:17;;;;;;;;;;;;;;;8.64;57.26;96075.69;5093290;28;1096;-68
2022/10/21 00:58:46;;;;;;;;;;;;;;;8.20;58.89;96070.31;5093412;28;1123;-68
2022/10/21 01:01:12;;;;;;;;;;;;;;;8.18;58.89;96071.41;5092896;28;1041;-67
2022/10/21 01:03:38;;;;;;;;;;;;;;;8.20;58.85;96069.47;5093497;28;1997;-68
2022/10/21 01:06:08;;;;;;;;;;;;;;;7.95;59.73;96068.78;5093465;28;1015;-68
2022/10/21 01:08:34;;;;;;;;;;;;;;;8.12;58.88;96071.91;5093371;28;980;-68
2022/10/21 01:11:01;;;;;;;;;;;;;;;8.19;58.20;96067.78;5093263;28;1072;-68
2022/10/21 01:13:31;;;;;;;;;;;;;;;8.02;58.65;96071.78;5093101;28;1096;-68
2022/10/21 01:16:06;;;;;;;;;;;;;;;7.89;59.39;96066.63;5095273;28;1032;-68
2022/10/21 01:18:45;;;;;;;;;;;;;;;7.95;59.00;96063.47;5097557;28;965;-68
2022/10/21 01:21:34;;;;;;;;;;;;;;;7.62;60.27;96074.94;5097335;28;1051;-68
2022/10/21 01:24:06;;;;;;;;;;;;;;;7.68;60.49;96068.31;5068566;28;1910;-68
2022/10/21 01:26:44;;;;;;;;;;;;;;;8.16;58.46;96065.38;5097396;28;1019;-68
2022/10/21 01:29:29;;;;;;;;;;;;;;;8.12;58.20;96067.44;5097022;28;1057;-68
2022/10/21 01:32:14;;;;;;;;;;;;;;;8.12;58.16;96067.44;5097018;28;1195;-68
2022/10/21 01:34:44;;;;;;;;;;;;;;;7.73;59.72;96066.13;5097236;28;962;-68
2022/10/21 01:37:30;;;;;;;;;;;;;;;7.86;59.36;96069.50;5097145;28;989;-68
2022/10/21 01:40:05;;;;;;;;;;;;;;;7.86;59.22;96069.50;5086364;28;1164;-68
2022/10/21 01:42:41;;;;;;;;;;;;;;;7.88;59.16;96064.91;5096714;28;1988;-68
2022/10/21 01:45:11;;;;;;;;;;;;;;;7.85;59.02;96065.16;5097055;28;960;-68
2022/10/21 01:47:42;;;;;;;;;;;;;;;7.51;60.31;96073.16;5097045;28;949;-68
2022/10/21 01:50:16;;;;;;;;;;;;;;;7.88;58.78;96080.88;5100334;28;1680;-68
2022/10/21 01:52:44;;;;;;;;;;;;;;;8.09;57.86;96072.16;5117002;28;1190;-68
2022/10/21 01:55:13;;;;;;;;;;;;;;;7.87;58.47;96071.19;5116959;27;1123;-68
2022/10/21 01:57:42;;;;;;;;;;;;;;;7.49;60.16;96074.22;5117250;28;1004;-68
2022/10/21 02:00:09;;;;;;;;;;;;;;;7.40;60.78;96083.78;5115852;28;1130;-68
2022/10/21 02:02:41;;;;;;;;;;;;;;;7.51;60.40;96081.13;5116845;28;1996;-68
2022/10/21 02:05:09;;;;;;;;;;;;;;;7.81;59.53;96080.50;5116926;27;1040;-68
2022/10/21 02:07:35;;;;;;;;;;;;;;;7.91;58.81;96087.78;5116786;28;1048;-68
2022/10/21 02:10:02;;;;;;;;;;;;;;;7.82;58.75;96078.72;5116804;28;1060;-68
2022/10/21 02:12:30;;;;;;;;;;;;;;;7.90;58.29;96078.94;5116639;28;1057;-68
2022/10/21 02:14:58;;;;;;;;;;;;;;;7.70;59.08;96079.66;5116824;28;1040;-68
2022/10/21 02:17:25;;;;;;;;;;;;;;;7.51;59.72;96085.59;5116674;28;968;-68
2022/10/21 02:19:51;;;;;;;;;;;;;;;7.39;60.95;96084.72;5116674;28;1027;-68
2022/10/21 02:22:19;;;;;;;;;;;;;;;7.72;59.83;96080.41;5116450;28;1026;-68
2022/10/21 02:24:45;;;;;;;;;;;;;;;7.40;60.19;96076.63;5116435;28;1898;-68
2022/10/21 02:27:12;;;;;;;;;;;;;;;7.62;59.72;96082.94;5115442;28;1182;-68
2022/10/21 02:29:40;;;;;;;;;;;;;;;7.78;58.63;96080.78;5116420;28;1064;-68
2022/10/21 02:32:25;;;;;;;;;;;;;;;7.63;58.65;96095.28;5116452;28;961;-68
2022/10/21 02:35:00;;;;;;;;;;;;;;;7.63;58.77;96089.97;5116186;28;1104;-68
2022/10/21 02:37:32;;;;;;;;;;;;;;;7.57;58.56;96088.63;5116341;28;989;-68
2022/10/21 02:40:02;;;;;;;;;;;;;;;7.49;59.28;96090.19;5116418;28;1052;-68
2022/10/21 02:42:31;;;;;;;;;;;;;;;7.68;58.34;96092.25;5116193;28;1060;-68
2022/10/21 02:45:00;;;;;;;;;;;;;;;7.49;58.72;96084.88;5116100;28;1062;-68
2022/10/21 02:47:26;;;;;;;;;;;;;;;7.55;58.67;96089.69;5115906;28;1131;-68
2022/10/21 02:49:52;;;;;;;;;;;;;;;7.49;58.76;96091.03;5114810;27;1274;-68
2022/10/21 02:52:18;;;;;;;;;;;;;;;7.32;59.46;96091.50;5095277;28;1096;-68
2022/10/21 02:54:44;;;;;;;;;;;;;;;7.17;60.22;96098.81;5095660;28;976;-68
2022/10/21 02:57:10;;;;;;;;;;;;;;;7.13;60.28;96100.91;5094065;28;924;-67
2022/10/21 02:59:36;;;;;;;;;;;;;;;7.24;60.29;96108.88;5095478;28;1019;-68
2022/10/21 03:02:02;;;;;;;;;;;;;;;7.36;59.68;96112.44;5095310;28;1073;-68
2022/10/21 03:04:28;;;;;;;;;;;;;;;7.33;59.58;96123.31;5095334;28;1997;-68
2022/10/21 03:06:54;;;;;;;;;;;;;;;7.21;59.74;96113.63;5095290;28;1041;-68
2022/10/21 03:09:21;;;;;;;;;;;;;;;7.35;59.27;96109.88;5095111;28;1053;-68
2022/10/21 03:11:47;;;;;;;;;;;;;;;7.33;59.03;96111.81;5095209;28;1049;-68
2022/10/21 03:14:13;;;;;;;;;;;;;;;7.25;58.69;96120.38;5095086;28;1095;-68
2022/10/21 03:16:39;;;;;;;;;;;;;;;6.89;60.43;96124.03;5095057;28;964;-68
2022/10/21 03:19:05;;;;;;;;;;;;;;;6.89;60.08;96121.34;5095281;28;1044;-68
2022/10/21 03:21:31;;;;;;;;;;;;;;;7.20;59.33;96128.69;5095063;28;1064;-68
2022/10/21 03:23:57;;;;;;;;;;;;;;;6.97;60.15;96121.63;5094905;28;1912;-67
2022/10/21 03:26:23;;;;;;;;;;;;;;;6.96;60.57;96130.53;5094877;28;1052;-68
2022/10/21 03:28:49;;;;;;;;;;;;;;;6.93;61.27;96126.31;5094969;28;1012;-68
2022/10/21 03:31:15;;;;;;;;;;;;;;;6.90;61.61;96126.53;5095159;28;1060;-68
2022/10/21 03:33:41;;;;;;;;;;;;;;;6.94;61.12;96135.97;5094931;28;973;-68
2022/10/21 03:36:07;;;;;;;;;;;;;;;7.12;59.95;96140.91;5094874;28;1041;-68
2022/10/21 03:38:33;;;;;;;;;;;;;;;7.24;59.14;96131.97;5094852;28;956;-68
2022/10/21 03:40:59;;;;;;;;;;;;;;;7.38;58.59;96134.44;5094627;28;1044;-67
2022/10/21 03:43:25;;;;;;;;;;;;;;;7.15;59.15;96128.22;5094493;28;1905;-68
2022/10/21 03:45:51;;;;;;;;;;;;;;;6.88;59.97;96135.59;5094448;28;1006;-67
2022/10/21 03:48:17;;;;;;;;;;;;;;;6.68;61.00;96142.38;5094405;28;1041;-68
2022/10/21 03:50:43;;;;;;;;;;;;;;;7.07;59.54;96138.56;5103091;28;1295;-68
2022/10/21 03:53:10;;;;;;;;;;;;;;;6.93;60.14;96134.28;5114575;28;1096;-68
2022/10/21 03:55:36;;;;;;;;;;;;;;;6.74;60.81;96134.81;5114655;28;1220;-68
2022/10/21 03:58:02;;;;;;;;;;;;;;;6.89;60.48;96139.97;5114622;28;1056;-68
2022/10/21 04:00:28;;;;;;;;;;;;;;;7.04;59.69;96144.97;5114501;28;1027;-68
2022/10/21 04:02:54;;;;;;;;;;;;;;;6.92;59.75;96147.69;5114550;28;1999;-67
2022/10/21 04:05:20;;;;;;;;;;;;;;;7.18;58.62;96138.59;5114660;28;1009;-68
2022/10/21 04:07:46;;;;;;;;;;;;;;;7.17;58.12;96144.03;5114645;28;1198;-68
2022/10/21 04:10:12;;;;;;;;;;;;;;;7.02;58.54;96138.94;5114307;28;1041;-68
2022/10/21 04:12:39;;;;;;;;;;;;;;;7.14;57.99;96145.13;5113211;28;1124;-67
2022/10/21 04:15:05;;;;;;;;;;;;;;;6.73;58.98;96143.72;5114323;28;1012;-68
2022/10/21 04:17:32;;;;;;;;;;;;;;;6.70;59.38;96138.66;5114568;28;988;-68
2022/10/21 04:19:58;;;;;;;;;;;;;;;6.71;59.03;96140.34;5114530;28;961;-68
2022/10/21 04:22:24;;;;;;;;;;;;;;;6.90;58.38;96136.34;5114115;28;1045;-67
2022/10/21 04:24:50;;;;;;;;;;;;;;;6.95;58.05;96136.84;5114048;28;1917;-68
2022/10/21 04:27:16;;;;;;;;;;;;;;;6.79;58.65;96130.00;5114094;28;1053;-68
2022/10/21 04:29:43;;;;;;;;;;;;;;;6.33;60.15;96124.56;5114117;27;1047;-68
2022/10/21 04:32:09;;;;;;;;;;;;;;;6.28;60.83;96132.88;5114037;28;1048;-68
2022/10/21 04:34:35;;;;;;;;;;;;;;;6.62;59.89;96133.91;5113018;28;965;-68
2022/10/21 04:37:01;;;;;;;;;;;;;;;6.60;60.01;96137.63;5114172;28;1095;-68
2022/10/21 04:39:27;;;;;;;;;;;;;;;6.56;60.13;96126.38;5113925;28;1113;-68
2022/10/21 04:41:54;;;;;;;;;;;;;;;6.30;61.03;96133.59;5113994;28;1029;-68
2022/10/21 04:44:20;;;;;;;;;;;;;;;6.29;61.23;96137.22;5113723;28;1902;-68
2022/10/21 04:46:47;;;;;;;;;;;;;;;6.35;60.70;96138.56;5114106;28;972;-67
2022/10/21 04:49:13;;;;;;;;;;;;;;;6.53;59.59;96142.56;5113755;28;1104;-68
2022/10/21 04:51:39;;;;;;;;;;;;;;;6.68;58.79;96143.25;5096850;28;1327;-68
2022/10/21 04:54:05;;;;;;;;;;;;;;;6.29;60.26;96142.53;5093490;28;1069;-68
2022/10/21 04:56:31;;;;;;;;;;;;;;;6.18;61.17;96134.47;5092214;28;1004;-68
2022/10/21 04:58:57;;;;;;;;;;;;;;;6.39;60.08;96142.69;5093367;28;1025;-68
2022/10/21 05:01:23;;;;;;;;;;;;;;;6.54;59.64;96140.75;5093227;28;1062;-68
2022/10/21 05:03:49;;;;;;;;;;;;;;;6.45;59.88;96139.63;5093529;28;1910;-68
2022/10/21 05:06:15;;;;;;;;;;;;;;;6.72;58.73;96135.91;5092025;28;1108;-67
2022/10/21 05:08:41;;;;;;;;;;;;;;;6.61;59.23;96142.84;5093416;28;1023;-67
2022/10/21 05:11:07;;;;;;;;;;;;;;;6.40;60.00;96142.59;5093322;28;1032;-68
2022/10/21 05:13:33;;;;;;;;;;;;;;;6.39;59.98;96140.03;5093125;28;1041;-67
2022/10/21 05:16:01;;;;;;;;;;;;;;;6.45;60.48;96139.63;5092291;28;1013;-67
2022/10/21 05:18:27;;;;;;;;;;;;;;;6.28;61.31;96146.16;5093355;28;1020;-67
2022/10/21 05:20:54;;;;;;;;;;;;;;;6.40;61.12;96139.94;5093168;28;1120;-68
2022/10/21 05:23:20;;;;;;;;;;;;;;;6.73;59.89;96145.56;5093166;28;1934;-67
2022/10/21 05:25:47;;;;;;;;;;;;;;;6.97;59.02;96154.38;5093312;28;1031;-68
2022/10/21 05:28:13;;;;;;;;;;;;;;;7.01;58.64;96152.34;5093082;28;1115;-67
2022/10/21 05:30:39;;;;;;;;;;;;;;;7.00;58.90;96158.59;5093399;28;1019;-67
2022/10/21 05:33:06;;;;;;;;;;;;;;;7.04;58.65;96162.75;5093081;28;1057;-68
2022/10/21 05:35:32;;;;;;;;;;;;;;;6.94;60.08;96167.88;5093043;28;1064;-67
2022/10/21 05:37:58;;;;;;;;;;;;;;;6.92;60.39;96168.97;5093072;28;1109;-68
2022/10/21 05:40:24;;;;;;;;;;;;;;;7.17;59.95;96170.63;5093032;28;1153;-67
2022/10/21 05:42:50;;;;;;;;;;;;;;;7.18;60.04;96178.50;5091762;28;1914;-69
2022/10/21 05:45:16;;;;;;;;;;;;;;;7.40;60.12;96187.56;5093085;28;988;-67
2022/10/21 05:47:42;;;;;;;;;;;;;;;7.33;60.77;96191.63;5093208;28;1012;-68
2022/10/21 05:50:09;;;;;;;;;;;;;;;7.22;61.29;96187.13;5096369;28;1283;-68
2022/10/21 05:52:36;;;;;;;;;;;;;;;7.32;61.78;96189.91;5113133;28;1274;-68
2022/10/21 05:55:02;;;;;;;;;;;;;;;7.69;60.64;96187.13;5113198;28;1139;-68
2022/10/21 05:57:30;;;;;;;;;;;;;;;7.90;60.29;96193.44;5113083;28;1107;-67
2022/10/21 05:59:56;;;;;;;;;;;;;;;7.96;60.34;96195.63;5113129;28;1065;-67
2022/10/21 06:02:22;;;;;;;;;;;;;;;8.05;60.39;96196.75;5113796;28;1081;-68
2022/10/21 06:04:48;;;;;;;;;;;;;;;8.24;60.19;96203.31;5116991;28;1977;-68
2022/10/21 06:07:14;;;;;;;;;;;;;;;8.20;60.36;96208.00;5116893;28;1024;-68
2022/10/21 06:09:40;;;;;;;;;;;;;;;8.24;60.60;96205.97;5116919;28;1043;-68
2022/10/21 06:12:06;;;;;;;;;;;;;;;8.17;61.35;96211.75;5116692;28;1312;-68
2022/10/21 06:14:35;;;;;;;;;;;;;;;8.47;60.10;96204.16;5116985;28;1075;-67
2022/10/21 06:17:02;;;;;;;;;;;;;;;8.59;59.99;96208.50;5116698;28;1108;-67
2022/10/21 06:19:28;;;;;;;;;;;;;;;8.40;60.78;96209.97;5116525;27;1056;-68
2022/10/21 06:21:54;;;;;;;;;;;;;;;8.44;61.20;96207.91;5116716;28;973;-68
2022/10/21 06:24:20;;;;;;;;;;;;;;;8.41;61.43;96205.47;5116490;28;1991;-68
2022/10/21 06:26:48;;;;;;;;;;;;;;;8.35;61.83;96212.13;5116458;28;996;-68
2022/10/21 06:29:15;;;;;;;;;;;;;;;8.56;61.29;96212.28;5116447;28;1072;-68
2022/10/21 06:31:41;;;;;;;;;;;;;;;8.77;61.11;96203.53;5116574;28;1044;-68
2022/10/21 06:34:07;;;;;;;;;;;;;;;8.99;60.12;96214.16;5116249;28;1033;-68
2022/10/21 06:36:33;;;;;;;;;;;;;;;9.06;60.32;96213.63;5116288;28;1073;-68
2022/10/21 06:38:59;;;;;;;;;;;;;;;8.91;61.04;96218.41;5116326;28;1052;-67
2022/10/21 06:41:25;;;;;;;;;;;;;;;9.02;59.81;96221.03;5116060;28;1049;-67
2022/10/21 06:43:51;;;;;;;;;;;;;;;9.15;59.86;96218.22;5116031;28;1989;-67
2022/10/21 06:46:17;;;;;;;;;;;;;;;9.47;59.26;96218.22;5115971;28;1136;-67
2022/10/21 06:48:44;;;;;;;;;;;;;;;9.62;59.49;96225.91;5116183;28;1075;-67
2022/10/21 06:51:14;;;;;;;;;;;;;;;9.73;59.09;96226.72;5103594;28;1522;-68
2022/10/21 06:53:40;;;;;;;;;;;;;;;9.76;59.05;96230.94;5095532;28;1274;-68
2022/10/21 06:56:09;;;;;;;;;;;;;;;9.82;58.75;96227.75;5095467;28;1096;-68
2022/10/21 06:58:36;;;;;;;;;;;;;;;9.89;57.64;96222.75;5095712;28;1058;-68
2022/10/21 07:01:06;;;;;;;;;;;;;;;10.00;58.00;96229.81;5095429;28;1053;-66
2022/10/21 07:03:32;;;;;;;;;;;;;;;10.09;58.25;96221.88;5095346;28;1975;-68
2022/10/21 07:05:59;;;;;;;;;;;;;;;10.13;57.39;96223.31;5095271;28;1099;-68
2022/10/21 07:08:26;;;;;;;;;;;;;;;10.22;57.83;96226.16;5095207;28;1308;-68
2022/10/21 07:10:52;;;;;;;;;;;;;;;10.27;58.21;96222.09;5095157;28;1064;-68
2022/10/21 07:13:18;;;;;;;;;;;;;;;10.35;57.88;96218.78;5094769;28;1057;-67
2022/10/21 07:15:44;;;;;;;;;;;;;;;10.50;57.81;96211.28;5095310;28;1043;-68
2022/10/21 07:18:10;;;;;;;;;;;;;;;10.53;57.90;96213.69;5093778;28;1166;-67
2022/10/21 07:20:36;;;;;;;;;;;;;;;10.50;57.61;96217.44;5094008;28;1047;-67
2022/10/21 07:23:02;;;;;;;;;;;;;;;10.70;58.26;96225.56;5095015;28;1988;-67
2022/10/21 07:25:28;;;;;;;;;;;;;;;10.65;57.98;96209.91;5094791;28;984;-67
2022/10/21 07:27:54;;;;;;;;;;;;;;;10.69;58.57;96205.97;5094879;28;1130;-68
2022/10/21 07:30:22;;;;;;;;;;;;;;;10.64;58.17;96204.69;5094965;28;961;-66
2022/10/21 07:32:49;;;;;;;;;;;;;;;10.86;58.33;96209.00;5094851;28;1087;-67
2022/10/21 07:35:15;;;;;;;;;;;;;;;11.14;57.72;96210.88;5094691;28;1206;-68
2022/10/21 07:37:41;;;;;;;;;;;;;;;11.25;58.13;96206.38;5094745;28;961;-66
2022/10/21 07:40:08;;;;;;;;;;;;;;;11.32;57.79;96204.84;5094490;28;984;-68
2022/10/21 07:42:34;;;;;;;;;;;;;;;11.35;58.12;96209.91;5094698;28;1053;-68
2022/10/21 07:45:02;;;;;;;;;;;;;;;11.51;57.50;96204.00;5094752;28;1909;-68
2022/10/21 07:47:28;;;;;;;;;;;;;;;11.87;56.88;96207.75;5094451;28;1100;-68
2022/10/21 07:49:54;;;;;;;;;;;;;;;11.98;56.17;96192.56;5096072;28;1264;-68
2022/10/21 07:52:20;;;;;;;;;;;;;;;12.21;56.54;96198.44;5114649;28;1194;-68
2022/10/21 07:54:46;;;;;;;;;;;;;;;12.28;55.54;96199.53;5114676;28;1053;-67
2022/10/21 07:57:12;;;;;;;;;;;;;;;12.20;55.93;96189.53;5114857;28;1035;-68
2022/10/21 07:59:38;;;;;;;;;;;;;;;12.76;54.76;96189.59;5114888;28;972;-67
2022/10/21 08:02:04;;;;;;;;;;;;;;;12.76;54.27;96189.59;5114834;27;1058;-68
2022/10/21 08:04:32;;;;;;;;;;;;;;;12.83;55.07;96188.00;5114517;28;1910;-67
2022/10/21 08:06:58;;;;;;;;;;;;;;;12.84;54.39;96192.38;5114535;28;1139;-67
2022/10/21 08:09:25;;;;;;;;;;;;;;;13.23;54.02;96192.13;5114386;28;1048;-68
2022/10/21 08:11:51;;;;;;;;;;;;;;;13.34;53.01;96188.44;5114516;28;1128;-68
2022/10/21 08:14:17;;;;;;;;;;;;;;;13.33;53.55;96186.72;5114475;28;1031;-68
2022/10/21 08:16:43;;;;;;;;;;;;;;;13.59;52.67;96190.31;5114488;28;1020;-67
2022/10/21 08:19:15;;;;;;;;;;;;;;;13.79;52.79;96192.84;5114326;28;1051;-68
2022/10/21 08:21:41;;;;;;;;;;;;;;;14.04;51.54;96181.28;5114310;28;1056;-68
2022/10/21 08:24:07;;;;;;;;;;;;;;;14.28;51.29;96173.53;5114016;28;1965;-68
2022/10/21 08:26:33;;;;;;;;;;;;;;;14.50;51.31;96169.44;5113468;28;1057;-68
2022/10/21 08:29:01;;;;;;;;;;;;;;;14.50;50.31;96170.28;5114089;28;1139;-68
2022/10/21 08:31:27;;;;;;;;;;;;;;;14.73;50.04;96167.06;5114098;28;1148;-69
2022/10/21 08:33:53;;;;;;;;;;;;;;;15.11;49.13;96172.91;5114175;28;960;-68
2022/10/21 08:36:21;;;;;;;;;;;;;;;15.20;48.86;96170.06;5113970;28;1022;-68
2022/10/21 08:38:48;;;;;;;;;;;;;;;15.45;48.53;96169.28;5114298;28;1052;-68
2022/10/21 08:41:29;;;;;;;;;;;;;;;15.93;46.96;96156.84;5114113;28;1043;-68
2022/10/21 08:44:04;;;;;;;;;;;;;;;15.90;46.67;96149.94;5113922;28;1910;-68
2022/10/21 08:50:00;;;;;;;;;;;;;;;16.03;47.48;96146.72;5112807;28;1299;-69
2022/10/21 08:52:33;;;;;;;;;;;;;;;16.48;46.62;96156.06;5093593;28;1077;-69
2022/10/21 08:55:02;;;;;;;;;;;;;;;16.81;46.06;96144.28;5093472;28;1093;-69
2022/10/21 08:57:30;;;;;;;;;;;;;;;16.93;45.65;96148.31;5109465;28;1619;-69
2022/10/21 08:59:56;;;;;;;;;;;;;;;17.02;45.48;96141.03;5093699;28;1005;-68
2022/10/21 09:02:39;;;;;;;;;;;;;;;17.36;44.19;96138.78;5093524;28;1049;-68
2022/10/21 09:05:28;;;;;;;;;;;;;;;17.57;44.44;96131.88;5093434;28;1975;-68
2022/10/21 09:08:00;;;;;;;;;;;;;;;18.20;42.90;96140.66;5093352;28;957;-68
2022/10/21 09:10:48;;;;;;;;;;;;;;;18.72;41.32;96139.75;5093457;28;1051;-69
2022/10/21 09:13:19;;;;;;;;;;;;;;;19.00;41.54;96136.38;5093381;28;1035;-68
2022/10/21 09:15:48;;;;;;;;;;;;;;;19.24;40.79;96132.50;5093340;28;1067;-68
2022/10/21 09:18:25;;;;;;;;;;;;;;;19.41;39.64;96138.50;5093073;28;1044;-68
2022/10/21 09:21:01;;;;;;;;;;;;;;;19.28;39.79;96131.06;5093326;28;1108;-67
2022/10/21 09:23:39;;;;;;;;;;;;;;;18.95;41.69;96116.28;5093266;28;1906;-68
2022/10/21 09:26:28;;;;;;;;;;;;;;;18.80;41.93;96109.03;5093224;28;1104;-69
2022/10/21 09:28:54;;;;;;;;;;;;;;;18.67;42.11;96109.66;5085096;28;1145;-69
2022/10/21 09:31:20;;;;;;;;;;;;;;;18.41;42.54;96115.56;5093069;28;1167;-68
2022/10/21 09:33:54;;;;;;;;;;;;;;;18.18;42.88;96112.09;5093324;28;1024;-68
2022/10/21 09:36:25;;;;;;;;;;;;;;;17.85;43.85;96101.56;5093813;28;1072;-68
2022/10/21 09:38:55;;;;;;;;;;;;;;;17.21;44.52;96107.31;5129814;27;1060;-68
2022/10/21 09:41:22;;;;;;;;;;;;;;;16.58;45.91;96085.69;5096923;28;1260;-68
2022/10/21 09:43:49;;;;;;;;;;;;;;;16.13;47.55;96082.63;5097396;28;1994;-68
2022/10/21 09:46:15;;;;;;;;;;;;;;;15.75;48.73;96078.84;5096810;28;1112;-68
2022/10/21 09:48:46;;;;;;;;;;;;;;;15.45;49.25;96077.66;5097120;28;1115;-68
2022/10/21 09:51:14;;;;;;;;;;;;;;;15.32;49.92;96086.22;5109343;28;1244;-68
2022/10/21 09:53:43;;;;;;;;;;;;;;;15.16;50.80;96079.81;5116988;28;1194;-68
2022/10/21 09:56:19;;;;;;;;;;;;;;;15.11;51.32;96078.63;5117380;28;1020;-68
2022/10/21 09:58:45;;;;;;;;;;;;;;;15.09;51.00;96083.34;5117206;28;973;-68
2022/10/21 10:01:16;;;;;;;;;;;;;;;15.13;49.51;96077.44;5116930;28;1053;-68
2022/10/21 10:03:46;;;;;;;;;;;;;;;15.16;50.31;96070.91;5116881;28;1913;-68
2022/10/21 10:06:28;;;;;;;;;;;;;;;15.17;50.25;96065.31;5116774;28;1029;-68
2022/10/21 10:09:04;;;;;;;;;;;;;;;15.16;50.86;96068.22;5116915;28;1159;-68
2022/10/21 10:11:30;;;;;;;;;;;;;;;15.22;50.64;96065.69;5116975;28;1083;-68
2022/10/21 10:13:56;;;;;;;;;;;;;;;15.26;50.40;96065.34;5116692;28;1132;-68
2022/10/21 10:16:29;;;;;;;;;;;;;;;15.28;50.18;96060.63;5116796;28;1020;-68
2022/10/21 10:19:14;;;;;;;;;;;;;;;15.31;50.11;96052.19;5116612;28;1051;-67
2022/10/21 10:21:40;;;;;;;;;;;;;;;15.32;49.28;96049.34;5116614;28;1045;-67
2022/10/21 10:24:14;;;;;;;;;;;;;;;15.36;50.32;96044.47;5116449;28;1980;-68
2022/10/21 10:26:41;;;;;;;;;;;;;;;15.41;49.07;96044.81;5116696;28;1039;-68
2022/10/21 10:29:13;;;;;;;;;;;;;;;15.31;49.23;96042.28;5116411;28;1074;-68
2022/10/21 10:31:44;;;;;;;;;;;;;;;15.40;49.76;96030.50;5116376;28;976;-67
2022/10/21 10:34:17;;;;;;;;;;;;;;;15.51;48.85;96028.44;5116321;28;1119;-68
2022/10/21 10:36:43;;;;;;;;;;;;;;;15.50;50.00;96024.06;5116345;28;1293;-68
2022/10/21 10:39:17;;;;;;;;;;;;;;;15.57;49.88;96015.13;5116239;28;981;-67
2022/10/21 10:41:48;;;;;;;;;;;;;;;15.58;50.21;96014.13;5116139;28;1044;-68
2022/10/21 10:44:23;;;;;;;;;;;;;;;15.67;50.06;96001.47;5116253;27;1906;-68
2022/10/21 10:46:54;;;;;;;;;;;;;;;15.77;50.06;96010.22;5116382;27;972;-68
2022/10/21 10:49:21;;;;;;;;;;;;;;;15.80;48.85;95996.41;5115459;28;1036;-68
2022/10/21 10:52:07;;;;;;;;;;;;;;;15.72;49.60;95991.00;5098406;28;1259;-68
2022/10/21 10:54:33;;;;;;;;;;;;;;;15.76;49.76;95980.75;5084965;28;1425;-68
2022/10/21 10:57:02;;;;;;;;;;;;;;;15.90;49.53;95982.72;5095763;28;989;-68
2022/10/21 10:59:34;;;;;;;;;;;;;;;15.94;50.27;95981.38;5095401;28;1041;-68
2022/10/21 11:02:06;;;;;;;;;;;;;;;15.99;49.41;95978.13;5095508;28;1104;-69
2022/10/21 11:04:40;;;;;;;;;;;;;;;16.03;49.45;95984.88;5095386;28;1901;-68
2022/10/21 11:07:12;;;;;;;;;;;;;;;16.08;49.15;95979.78;5095301;28;980;-67
2022/10/21 11:09:38;;;;;;;;;;;;;;;16.06;49.54;95970.19;5095505;28;960;-68
2022/10/21 11:12:09;;;;;;;;;;;;;;;16.09;50.16;95973.38;5095151;28;1136;-67
2022/10/21 11:14:35;;;;;;;;;;;;;;;16.15;49.63;95969.16;5095256;28;1060;-67
2022/10/21 11:17:12;;;;;;;;;;;;;;;16.15;48.74;95961.88;5095235;28;972;-68
2022/10/21 11:19:51;;;;;;;;;;;;;;;16.15;50.51;95951.09;5095070;28;1272;-68
2022/10/21 11:22:20;;;;;;;;;;;;;;;16.19;50.15;95947.03;5095187;28;1020;-68
2022/10/21 11:24:52;;;;;;;;;;;;;;;16.26;50.30;95940.91;5094858;28;1906;-68
2022/10/21 11:27:37;;;;;;;;;;;;;;;16.26;50.10;95939.06;5094834;28;1132;-68
2022/10/21 11:30:20;;;;;;;;;;;;;;;16.22;50.39;95940.44;5094808;28;1045;-68
2022/10/21 11:32:56;;;;;;;;;;;;;;;16.28;49.84;95928.09;5094907;28;1084;-68
2022/10/21 11:35:31;;;;;;;;;;;;;;;16.37;49.96;95932.41;5094894;28;1039;-68
2022/10/21 11:38:04;;;;;;;;;;;;;;;16.39;49.23;95919.63;5094800;28;961;-68
2022/10/21 11:40:36;;;;;;;;;;;;;;;16.42;49.32;95921.94;5094555;28;1023;-68
2022/10/21 11:43:14;;;;;;;;;;;;;;;16.45;48.50;95916.19;5094781;28;1909;-69
2022/10/21 11:45:46;;;;;;;;;;;;;;;16.49;48.51;95914.81;5094779;28;1004;-69
2022/10/21 11:48:27;;;;;;;;;;;;;;;16.56;48.33;95907.69;5094589;28;976;-69
2022/10/21 11:51:08;;;;;;;;;;;;;;;16.56;48.61;95913.06;5104244;28;1255;-68
2022/10/21 11:53:53;;;;;;;;;;;;;;;16.59;49.44;95901.91;5114763;28;1249;-68
2022/10/21 11:56:46;;;;;;;;;;;;;;;16.56;49.00;95896.88;5114744;27;1108;-68
2022/10/21 11:59:14;;;;;;;;;;;;;;;16.56;49.02;95901.41;5111402;28;1097;-68
2022/10/21 12:01:45;;;;;;;;;;;;;;;16.61;48.73;95896.31;5113006;28;1020;-68
2022/10/21 12:04:19;;;;;;;;;;;;;;;16.59;49.14;95887.56;5114707;28;1988;-68
2022/10/21 12:07:01;;;;;;;;;;;;;;;16.67;48.56;95889.38;5114541;28;1045;-68
2022/10/21 12:09:42;;;;;;;;;;;;;;;16.77;47.89;95887.28;5114525;28;1037;-68
2022/10/21 12:12:11;;;;;;;;;;;;;;;16.83;49.12;95886.56;5114627;28;1072;-69
2022/10/21 12:14:43;;;;;;;;;;;;;;;16.78;49.21;95881.66;5114675;28;1084;-68
2022/10/21 12:17:16;;;;;;;;;;;;;;;16.78;49.30;95884.38;5114489;28;1133;-68
2022/10/21 12:19:46;;;;;;;;;;;;;;;16.79;49.37;95886.06;5114506;28;1032;-68
2022/10/21 12:22:12;;;;;;;;;;;;;;;16.81;49.44;95877.78;5114183;28;1072;-69
2022/10/21 12:24:43;;;;;;;;;;;;;;;16.85;49.60;95876.41;5114463;28;1905;-69
2022/10/21 12:27:16;;;;;;;;;;;;;;;16.91;49.16;95875.69;5114422;28;1011;-69
2022/10/21 12:29:54;;;;;;;;;;;;;;;16.93;48.94;95870.09;5114257;28;1054;-68
2022/10/21 12:32:32;;;;;;;;;;;;;;;16.90;48.51;95874.03;5114189;28;1020;-69
2022/10/21 12:35:00;;;;;;;;;;;;;;;17.00;47.95;95859.38;5114125;28;1069;-68
2022/10/21 12:37:42;;;;;;;;;;;;;;;17.05;47.75;95865.91;5114224;28;1068;-68
2022/10/21 12:40:16;;;;;;;;;;;;;;;17.08;48.85;95862.03;5114162;28;1015;-69
2022/10/21 12:42:47;;;;;;;;;;;;;;;17.02;48.96;95865.47;5114112;28;1062;-69
2022/10/21 12:45:24;;;;;;;;;;;;;;;17.04;49.29;95858.03;5113767;28;1976;-69
2022/10/21 12:47:51;;;;;;;;;;;;;;;16.98;49.18;95849.63;5114176;28;1056;-69
2022/10/21 12:50:23;;;;;;;;;;;;;;;16.93;49.21;95852.03;5109048;28;1251;-68
2022/10/21 12:53:06;;;;;;;;;;;;;;;16.92;49.11;95852.19;5093527;28;1103;-69
2022/10/21 12:55:39;;;;;;;;;;;;;;;16.89;49.27;95852.59;5093581;28;1054;-69
2022/10/21 12:58:13;;;;;;;;;;;;;;;16.87;49.51;95850.06;5093781;28;1008;-69
2022/10/21 13:00:42;;;;;;;;;;;;;;;16.98;48.59;95851.50;5093675;28;1016;-69
2022/10/21 13:03:13;;;;;;;;;;;;;;;17.01;48.97;95842.16;5093236;28;1910;-69
2022/10/21 13:05:39;;;;;;;;;;;;;;;17.03;48.74;95843.66;5093351;28;1083;-69
2022/10/21 13:08:17;;;;;;;;;;;;;;;17.06;48.41;95840.59;5093400;28;1033;-68
2022/10/21 13:11:01;;;;;;;;;;;;;;;17.12;47.93;95839.03;5093598;28;1012;-69
2022/10/21 13:13:30;;;;;;;;;;;;;;;17.06;47.97;95827.09;5097581;28;1201;-69
2022/10/21 13:15:57;;;;;;;;;;;;;;;17.08;48.58;95830.44;5097498;28;1037;-69
2022/10/21 13:18:59;;;;;;;;;;;;;;;17.12;48.74;95826.34;5097458;28;1059;-69
2022/10/21 13:21:28;;;;;;;;;;;;;;;17.14;48.12;95829.69;5034847;28;1287;-69